Time;durP1;ratioP1;P1;durP2;ratioP2;P2;SDS_P1;SDS_P2;PMS_P1;PMS_P2;Temp;Humidity;BMP_temperature;BMP_pressure;BME280_temperature;BME280_humidity;BME280_pressure;Samples;Min_cycle;Max_cycle;Signal;HPM_P1;HPM_P2
2023/02/15 00:00:27;;;;;;;143.10;49.50;;;0.00;99.90;;;;;;5015656;28;20056;-79
2023/02/15 00:02:54;;;;;;;130.55;44.53;;;0.00;99.90;;;;;;4988277;28;20041;-80
2023/02/15 00:05:21;;;;;;;116.45;44.25;;;0.00;99.90;;;;;;5011959;28;20047;-80
2023/02/15 00:07:48;;;;;;;127.82;45.10;;;-0.10;99.90;;;;;;5007541;28;20064;-80
2023/02/15 00:10:17;;;;;;;119.07;42.72;;;-0.10;99.90;;;;;;5009988;28;20052;-80
2023/02/15 00:12:44;;;;;;;128.70;42.67;;;-0.10;99.90;;;;;;4992706;28;20526;-80
2023/02/15 00:15:12;;;;;;;123.00;40.33;;;-0.10;99.90;;;;;;4995495;28;20290;-80
2023/02/15 00:17:39;;;;;;;107.45;38.10;;;-0.10;99.90;;;;;;5000110;28;20049;-80
2023/02/15 00:20:07;;;;;;;104.60;35.10;;;-0.10;99.90;;;;;;5008360;28;20083;-79
2023/02/15 00:22:34;;;;;;;93.45;34.28;;;-0.10;99.90;;;;;;4990362;28;20052;-79
2023/02/15 00:25:01;;;;;;;100.10;33.33;;;-0.20;99.90;;;;;;5011647;28;20051;-79
2023/02/15 00:27:28;;;;;;;95.13;35.33;;;-0.20;99.90;;;;;;5000458;28;22816;-79
2023/02/15 00:29:56;;;;;;;105.80;37.55;;;-0.20;99.90;;;;;;5034563;28;20491;-80
2023/02/15 00:32:23;;;;;;;93.53;32.35;;;-0.20;99.90;;;;;;5017639;28;20055;-79
2023/02/15 00:34:50;;;;;;;90.72;32.85;;;-0.30;99.90;;;;;;5020183;28;20060;-80
2023/02/15 00:37:17;;;;;;;83.30;29.83;;;-0.20;99.90;;;;;;4991904;28;20044;-79
2023/02/15 00:39:46;;;;;;;81.75;30.13;;;-0.30;99.90;;;;;;5010905;28;20135;-79
2023/02/15 00:42:13;;;;;;;84.05;29.83;;;-0.30;99.90;;;;;;4992985;28;20518;-80
2023/02/15 00:44:40;;;;;;;88.35;32.15;;;-0.30;99.90;;;;;;5011255;28;20750;-79
2023/02/15 00:47:08;;;;;;;78.63;28.83;;;-0.30;99.90;;;;;;4994060;28;20075;-80
2023/02/15 00:49:35;;;;;;;101.47;33.45;;;-0.30;99.90;;;;;;4996122;28;20557;-80
2023/02/15 00:52:02;;;;;;;87.47;33.35;;;-0.30;99.90;;;;;;5000013;28;20036;-79
2023/02/15 00:54:29;;;;;;;88.93;30.10;;;-0.40;99.90;;;;;;5007323;28;20799;-80
2023/02/15 00:56:56;;;;;;;86.47;30.77;;;-0.30;99.90;;;;;;5017161;28;20052;-80
2023/02/15 00:59:23;;;;;;;88.72;32.95;;;-0.40;99.90;;;;;;5019498;28;20044;-80
2023/02/15 01:01:50;;;;;;;90.72;31.23;;;-0.40;99.90;;;;;;5010378;28;20048;-80
2023/02/15 01:04:18;;;;;;;91.60;33.42;;;-0.40;99.90;;;;;;5033242;28;20110;-79
2023/02/15 01:06:46;;;;;;;93.00;35.10;;;-0.40;99.90;;;;;;5017615;28;20418;-79
2023/02/15 01:09:13;;;;;;;106.18;37.38;;;-0.50;99.90;;;;;;5025793;28;20056;-79
2023/02/15 01:11:40;;;;;;;106.15;36.30;;;-0.50;99.90;;;;;;5016335;28;20435;-79
2023/02/15 01:14:07;;;;;;;109.70;35.53;;;-0.50;99.90;;;;;;5019403;28;20063;-79
2023/02/15 01:16:37;;;;;;;106.43;37.20;;;-0.50;99.90;;;;;;4991130;28;20166;-80
2023/02/15 01:19:06;;;;;;;112.10;38.05;;;-0.50;99.90;;;;;;5010410;28;20461;-79
2023/02/15 01:21:34;;;;;;;120.05;42.65;;;-0.60;99.90;;;;;;5010782;28;20045;-79
2023/02/15 01:24:02;;;;;;;114.20;40.50;;;-0.60;99.90;;;;;;4993798;28;20476;-80
2023/02/15 01:26:30;;;;;;;115.47;40.67;;;-0.60;99.90;;;;;;4995274;28;20063;-79
2023/02/15 01:28:58;;;;;;;108.22;40.20;;;-0.50;99.90;;;;;;5006653;28;20787;-79
2023/02/15 01:31:25;;;;;;;112.70;37.40;;;-0.50;99.90;;;;;;4996246;28;20037;-79
2023/02/15 01:33:52;;;;;;;110.28;38.53;;;-0.60;99.90;;;;;;5012553;28;22356;-79
2023/02/15 01:36:19;;;;;;;118.03;40.22;;;-0.60;99.90;;;;;;4997705;28;20048;-79
2023/02/15 01:38:46;;;;;;;115.85;38.95;;;-0.60;99.90;;;;;;4996645;28;20534;-79
2023/02/15 01:41:28;;;;;;;124.57;42.10;;;-0.60;99.90;;;;;;5001624;28;22202;-79
2023/02/15 01:44:01;;;;;;;120.60;39.58;;;-0.60;99.90;;;;;;5010926;28;20075;-79
2023/02/15 01:46:37;;;;;;;116.10;42.78;;;-0.60;99.90;;;;;;4979479;28;22315;-79
2023/02/15 01:49:17;;;;;;;119.22;41.45;;;-0.60;99.90;;;;;;4995858;28;20838;-79
2023/02/15 01:51:47;;;;;;;115.63;40.72;;;-0.70;99.90;;;;;;4976673;28;20414;-79
2023/02/15 01:54:35;;;;;;;128.02;42.97;;;-0.60;99.90;;;;;;5015977;28;20167;-79
2023/02/15 01:57:10;;;;;;;141.30;45.85;;;-0.70;99.90;;;;;;4991839;28;20052;-79
2023/02/15 01:59:42;;;;;;;151.32;50.90;;;-0.70;99.90;;;;;;5010916;28;20170;-79
2023/02/15 02:02:11;;;;;;;140.63;50.55;;;-0.80;99.90;;;;;;5016448;28;20190;-79
2023/02/15 02:04:46;;;;;;;139.10;48.30;;;-0.70;99.90;;;;;;5003557;28;20047;-79
2023/02/15 02:07:15;;;;;;;141.32;44.90;;;-0.70;99.90;;;;;;5026653;28;20045;-79
2023/02/15 02:09:44;;;;;;;132.05;44.88;;;-0.70;99.90;;;;;;5009564;28;20079;-79
2023/02/15 02:12:12;;;;;;;136.00;45.45;;;-0.70;99.90;;;;;;5002736;28;20165;-79
2023/02/15 02:14:40;;;;;;;136.52;45.75;;;-0.80;99.90;;;;;;5008086;28;22434;-79
2023/02/15 02:17:13;;;;;;;142.25;47.10;;;-0.70;99.90;;;;;;5030323;28;20185;-79
2023/02/15 02:19:52;;;;;;;174.88;55.65;;;-0.70;99.90;;;;;;5009921;28;20791;-80
2023/02/15 02:22:55;;;;;;;181.90;53.90;;;-0.80;99.90;;;;;;5008805;28;20156;-79
2023/02/15 02:25:40;;;;;;;170.65;50.35;;;-0.80;99.90;;;;;;4992467;28;20044;-80
2023/02/15 02:28:33;;;;;;;163.18;47.63;;;-0.80;99.90;;;;;;5006955;28;20509;-79
2023/02/15 02:31:18;;;;;;;170.73;48.28;;;-0.80;99.90;;;;;;5004957;28;20053;-79
2023/02/15 02:34:08;;;;;;;150.65;46.70;;;-0.80;99.90;;;;;;5007010;28;20048;-79
2023/02/15 02:36:50;;;;;;;148.73;49.67;;;-0.80;99.90;;;;;;4986820;28;20068;-79
2023/02/15 02:39:40;;;;;;;164.88;51.38;;;-0.90;99.90;;;;;;4992554;28;20726;-79
2023/02/15 02:42:35;;;;;;;148.15;48.20;;;-0.90;99.90;;;;;;4993262;28;20088;-79
2023/02/15 02:45:15;;;;;;;142.13;47.55;;;-0.90;99.90;;;;;;5023046;28;20049;-78
2023/02/15 02:48:00;;;;;;;133.23;45.78;;;-0.90;99.90;;;;;;5011859;28;20048;-79
2023/02/15 02:50:29;;;;;;;138.63;46.53;;;-1.00;99.90;;;;;;4998700;28;20048;-79
2023/02/15 02:52:58;;;;;;;134.68;45.75;;;-1.00;99.90;;;;;;5006030;28;20040;-79
2023/02/15 02:55:51;;;;;;;119.10;43.67;;;-1.00;99.90;;;;;;5007419;28;20376;-79
2023/02/15 02:58:49;;;;;;;114.45;42.95;;;-1.00;99.90;;;;;;5002317;28;20056;-79
2023/02/15 03:01:44;;;;;;;114.10;39.50;;;-1.00;99.90;;;;;;4973465;28;20056;-79
2023/02/15 03:04:26;;;;;;;113.03;42.58;;;-1.00;99.90;;;;;;4994109;28;20055;-78
2023/02/15 03:07:21;;;;;;;96.50;31.02;;;-1.00;99.90;;;;;;5029398;28;20043;-79
2023/02/15 03:09:53;;;;;;;108.80;36.25;;;-1.00;99.90;;;;;;5011602;28;20681;-78
2023/02/15 03:12:36;;;;;;;108.43;37.10;;;-1.00;99.90;;;;;;5010106;28;22611;-79
2023/02/15 03:15:06;;;;;;;107.25;37.00;;;-1.00;99.90;;;;;;5005273;28;20640;-79
2023/02/15 03:17:41;;;;;;;108.27;36.27;;;-1.00;99.90;;;;;;5032129;28;20056;-78
2023/02/15 03:20:14;;;;;;;116.72;38.45;;;-1.00;99.90;;;;;;5011050;28;20301;-79
2023/02/15 03:22:50;;;;;;;115.13;37.85;;;-1.10;99.90;;;;;;5015968;28;20052;-79
2023/02/15 03:25:23;;;;;;;119.63;36.45;;;-1.10;99.90;;;;;;5015217;28;20048;-79
2023/02/15 03:27:58;;;;;;;113.13;37.90;;;-1.10;99.90;;;;;;4998448;28;20500;-79
2023/02/15 03:30:28;;;;;;;106.15;36.42;;;-1.10;99.90;;;;;;5005145;28;20125;-79
2023/02/15 03:32:58;;;;;;;93.63;33.97;;;-1.20;99.90;;;;;;5014354;28;20044;-78
2023/02/15 03:35:34;;;;;;;107.20;34.38;;;-1.10;99.90;;;;;;5018163;28;20049;-79
2023/02/15 03:38:06;;;;;;;100.05;33.38;;;-1.10;99.90;;;;;;4998169;28;20059;-79
2023/02/15 03:43:39;;;;;;;92.68;31.38;;;-1.20;99.90;;;;;;5016492;28;20304;-78
2023/02/15 03:46:27;;;;;;;100.70;34.03;;;-1.20;99.90;;;;;;4998402;28;20127;-79
2023/02/15 03:49:06;;;;;;;100.47;33.45;;;-1.20;99.90;;;;;;4994569;28;20546;-78
2023/02/15 03:51:37;;;;;;;96.90;32.92;;;-1.30;99.90;;;;;;5011216;28;20052;-78
2023/02/15 03:54:12;;;;;;;97.32;33.80;;;-1.20;99.90;;;;;;5012136;28;20113;-79
2023/02/15 03:56:41;;;;;;;105.15;34.35;;;-1.20;99.90;;;;;;5012888;28;20431;-78
2023/02/15 04:02:24;;;;;;;98.22;32.50;;;-1.30;99.90;;;;;;5010542;28;20624;-79
2023/02/15 04:04:51;;;;;;;107.78;36.10;;;-1.30;99.90;;;;;;4992381;28;20044;-79
2023/02/15 04:07:18;;;;;;;104.40;33.60;;;-1.30;99.90;;;;;;5006963;28;20706;-79
2023/02/15 04:12:31;;;;;;;97.28;34.00;;;-1.40;99.90;;;;;;5013809;28;20610;-79
2023/02/15 04:17:43;;;;;;;99.82;33.97;;;-1.40;99.90;;;;;;5015110;28;20063;-78
2023/02/15 04:25:41;;;;;;;104.22;35.40;;;-1.40;99.90;;;;;;4997179;28;20056;-79
2023/02/15 04:28:09;;;;;;;118.00;38.30;;;-1.50;99.90;;;;;;4987723;28;20403;-78
2023/02/15 04:30:36;;;;;;;119.70;37.78;;;-1.50;99.90;;;;;;4994778;28;20080;-79
2023/02/15 04:33:03;;;;;;;110.28;36.10;;;-1.50;99.90;;;;;;4994372;28;20625;-78
2023/02/15 04:35:31;;;;;;;112.65;37.58;;;-1.50;99.90;;;;;;5013924;28;22450;-80
2023/02/15 04:37:58;;;;;;;115.25;37.45;;;-1.50;99.90;;;;;;5017071;28;22370;-78
2023/02/15 04:40:25;;;;;;;123.15;39.45;;;-1.50;99.90;;;;;;5031452;28;20044;-79
2023/02/15 04:42:52;;;;;;;123.68;40.13;;;-1.50;99.90;;;;;;5001137;28;20057;-79
2023/02/15 04:45:20;;;;;;;115.55;40.10;;;-1.50;99.90;;;;;;4994722;28;20422;-78
2023/02/15 04:47:47;;;;;;;115.68;39.85;;;-1.60;99.90;;;;;;5012491;28;20179;-79
2023/02/15 04:50:14;;;;;;;119.22;39.80;;;-1.60;99.90;;;;;;5030034;28;20045;-79
2023/02/15 04:52:41;;;;;;;127.68;40.10;;;-1.70;99.90;;;;;;4995501;28;20186;-79
2023/02/15 04:55:08;;;;;;;127.13;41.45;;;-1.70;99.90;;;;;;5021442;28;20060;-78
2023/02/15 04:57:35;;;;;;;114.38;38.25;;;-1.70;99.90;;;;;;4994813;28;20150;-78
2023/02/15 05:00:03;;;;;;;131.98;41.53;;;-1.70;99.90;;;;;;4993302;28;20650;-79
2023/02/15 05:02:30;;;;;;;126.60;43.58;;;-1.60;99.90;;;;;;5009303;28;20151;-79
2023/02/15 05:04:57;;;;;;;105.82;38.28;;;-1.70;99.90;;;;;;4994936;28;20045;-79
2023/02/15 05:07:24;;;;;;;121.07;39.95;;;-1.70;99.90;;;;;;4990998;28;20045;-79
2023/02/15 05:09:51;;;;;;;126.75;43.78;;;-1.60;99.90;;;;;;5000370;28;21076;-78
2023/02/15 05:12:19;;;;;;;128.68;41.53;;;-1.70;99.90;;;;;;4994164;28;20056;-79
2023/02/15 05:14:46;;;;;;;131.55;43.92;;;-1.70;99.90;;;;;;5007527;28;20418;-79
2023/02/15 05:17:13;;;;;;;115.78;41.75;;;-1.70;99.90;;;;;;5022836;28;20151;-79
2023/02/15 05:19:40;;;;;;;127.70;41.20;;;-1.70;99.90;;;;;;4977818;28;20084;-79
2023/02/15 05:22:07;;;;;;;113.22;38.97;;;-1.80;99.90;;;;;;5025864;28;20884;-79
2023/02/15 05:30:11;;;;;;;130.13;42.15;;;-1.80;99.90;;;;;;5020214;28;20155;-79
2023/02/15 05:32:39;;;;;;;135.02;42.65;;;-1.80;99.90;;;;;;5008855;28;22454;-79
2023/02/15 05:35:07;;;;;;;115.93;40.65;;;-1.80;99.90;;;;;;5009967;28;20060;-79
2023/02/15 05:37:34;;;;;;;114.85;40.00;;;-1.80;99.90;;;;;;5023679;28;20106;-78
2023/02/15 05:40:01;;;;;;;138.95;47.40;;;-1.80;99.90;;;;;;4986659;28;20060;-80
2023/02/15 05:42:28;;;;;;;126.50;41.88;;;-1.90;99.90;;;;;;4994735;28;20512;-79
2023/02/15 05:44:56;;;;;;;133.73;47.47;;;-1.90;99.90;;;;;;5009887;28;20467;-79
2023/02/15 05:47:23;;;;;;;122.95;43.20;;;-1.80;99.90;;;;;;4993903;28;20519;-78
2023/02/15 05:49:50;;;;;;;143.70;48.40;;;-1.90;99.90;;;;;;5014982;28;20048;-79
2023/02/15 05:52:17;;;;;;;130.65;43.78;;;-1.90;99.90;;;;;;4991486;28;20673;-79
2023/02/15 05:54:44;;;;;;;119.93;43.83;;;-1.90;99.90;;;;;;4994368;28;20053;-79
2023/02/15 05:57:11;;;;;;;150.95;46.90;;;-1.80;99.90;;;;;;4993496;28;20049;-80
2023/02/15 05:59:38;;;;;;;140.13;47.53;;;-1.80;99.90;;;;;;5006131;28;20045;-79
2023/02/15 06:02:06;;;;;;;135.13;47.10;;;-1.80;99.90;;;;;;4976665;28;20056;-80
2023/02/15 06:04:33;;;;;;;121.38;41.72;;;-1.80;99.90;;;;;;5031979;28;20507;-78
2023/02/15 06:07:00;;;;;;;126.72;45.00;;;-1.90;99.90;;;;;;5000723;28;20044;-79
2023/02/15 06:09:27;;;;;;;135.90;44.33;;;-1.90;99.90;;;;;;5015532;28;21944;-79
2023/02/15 06:11:54;;;;;;;140.07;45.72;;;-1.90;99.90;;;;;;4989265;28;20526;-79
2023/02/15 06:14:21;;;;;;;127.25;43.30;;;-1.80;99.90;;;;;;5003392;28;21754;-79
2023/02/15 06:16:49;;;;;;;127.32;43.30;;;-1.80;99.90;;;;;;4987069;28;20180;-79
2023/02/15 06:19:16;;;;;;;120.90;39.47;;;-1.80;99.90;;;;;;4987881;28;20073;-79
2023/02/15 06:21:43;;;;;;;111.32;42.90;;;-1.80;99.90;;;;;;4991490;28;20141;-79
2023/02/15 06:24:11;;;;;;;125.50;45.05;;;-1.80;99.90;;;;;;5008147;28;20052;-79
2023/02/15 06:26:38;;;;;;;129.90;43.28;;;-1.80;99.90;;;;;;5002901;28;20041;-79
2023/02/15 06:29:05;;;;;;;131.25;43.38;;;-1.80;99.90;;;;;;5008505;28;20090;-79
2023/02/15 06:31:32;;;;;;;123.53;42.70;;;-1.70;99.90;;;;;;5018507;28;20037;-78
2023/02/15 06:34:02;;;;;;;117.07;41.72;;;-1.60;99.90;;;;;;5000660;28;20419;-78
2023/02/15 06:36:30;;;;;;;118.93;41.08;;;-1.60;99.90;;;;;;5002949;28;20068;-78
2023/02/15 06:38:57;;;;;;;114.20;39.90;;;-1.60;99.90;;;;;;5003416;28;20388;-78
2023/02/15 06:41:24;;;;;;;117.75;40.38;;;-1.50;99.90;;;;;;4988671;28;20465;-78
2023/02/15 06:43:52;;;;;;;111.95;39.08;;;-1.50;99.90;;;;;;5005493;28;20060;-78
2023/02/15 06:46:19;;;;;;;110.20;39.67;;;-1.40;99.90;;;;;;4995837;28;20048;-80
2023/02/15 06:48:46;;;;;;;106.68;38.15;;;-1.30;99.90;;;;;;5002748;28;20053;-80
2023/02/15 06:51:13;;;;;;;108.10;35.85;;;-1.30;99.90;;;;;;5006934;28;20160;-80
2023/02/15 06:53:43;;;;;;;112.15;39.90;;;-1.20;99.90;;;;;;5006132;28;20049;-79
2023/02/15 06:56:11;;;;;;;96.70;35.80;;;-1.20;99.90;;;;;;5006921;28;20096;-79
2023/02/15 06:58:41;;;;;;;113.50;38.45;;;-1.10;99.90;;;;;;4969256;28;20677;-79
2023/02/15 07:01:09;;;;;;;109.90;37.65;;;-1.00;99.90;;;;;;5002544;28;20516;-81
2023/02/15 07:03:36;;;;;;;104.68;36.65;;;-1.00;99.90;;;;;;5002809;28;20053;-81
2023/02/15 07:06:07;;;;;;;106.47;38.53;;;-0.90;99.90;;;;;;4975266;28;20713;-81
2023/02/15 07:08:35;;;;;;;99.97;37.13;;;-0.80;99.90;;;;;;4985216;28;20060;-81
2023/02/15 07:13:49;;;;;;;100.88;36.08;;;-0.70;99.90;;;;;;4969258;28;20151;-81
2023/02/15 07:28:59;;;;;;;95.28;34.20;;;-0.20;99.90;;;;;;4997796;28;20055;-81
2023/02/15 07:31:26;;;;;;;100.90;35.83;;;-0.20;99.90;;;;;;5001141;28;20049;-81
2023/02/15 07:33:53;;;;;;;97.07;36.78;;;-0.10;99.90;;;;;;4954448;28;20045;-81
2023/02/15 07:36:20;;;;;;;106.47;38.47;;;0.00;99.90;;;;;;4963352;28;22644;-82
2023/02/15 07:38:47;;;;;;;115.97;40.35;;;0.10;99.90;;;;;;5034015;28;20049;-81
2023/02/15 07:41:15;;;;;;;115.63;38.80;;;0.20;99.90;;;;;;4996477;28;20597;-81
2023/02/15 07:43:44;;;;;;;97.70;35.20;;;0.30;99.90;;;;;;5023062;28;20057;-82
2023/02/15 07:46:14;;;;;;;117.38;44.40;;;0.40;99.90;;;;;;5023099;28;20045;-81
2023/02/15 07:48:42;;;;;;;117.45;41.95;;;0.50;99.90;;;;;;4998328;28;20041;-79
2023/02/15 07:51:11;;;;;;;119.15;39.90;;;0.60;99.90;;;;;;5012506;28;20052;-79
2023/02/15 07:53:39;;;;;;;109.40;41.15;;;0.60;99.90;;;;;;4998470;28;20052;-79
2023/02/15 07:56:11;;;;;;;106.93;37.97;;;0.70;99.90;;;;;;5017007;28;20056;-79
2023/02/15 07:58:50;;;;;;;97.95;37.20;;;0.80;99.90;;;;;;4975620;28;22193;-80
2023/02/15 08:01:31;;;;;;;97.88;34.30;;;0.90;99.90;;;;;;5021876;28;20056;-80
2023/02/15 08:03:58;;;;;;;93.47;34.05;;;1.00;99.90;;;;;;5015681;28;20053;-80
2023/02/15 08:06:29;;;;;;;84.30;31.33;;;1.10;99.90;;;;;;5019969;28;20048;-80
2023/02/15 08:08:56;;;;;;;89.40;31.65;;;1.20;99.90;;;;;;5006764;28;20048;-79
2023/02/15 08:11:28;;;;;;;85.72;31.77;;;1.30;99.90;;;;;;5040148;28;20044;-80
2023/02/15 08:14:02;;;;;;;98.20;33.45;;;1.40;99.90;;;;;;5001246;28;20090;-79
2023/02/15 08:16:32;;;;;;;93.45;34.33;;;1.40;99.90;;;;;;5014363;28;20053;-80
2023/02/15 08:19:03;;;;;;;102.65;33.22;;;1.50;99.90;;;;;;5016296;28;20804;-79
2023/02/15 08:21:31;;;;;;;91.43;31.77;;;1.60;99.90;;;;;;4993733;28;20052;-79
2023/02/15 08:23:59;;;;;;;102.20;34.75;;;1.70;99.90;;;;;;5016439;28;20049;-80
2023/02/15 08:26:28;;;;;;;110.95;40.20;;;1.80;99.90;;;;;;5003461;28;20073;-80
2023/02/15 08:28:56;;;;;;;101.45;39.13;;;1.80;99.90;;;;;;5012277;28;22120;-80
2023/02/15 08:31:24;;;;;;;98.30;38.03;;;2.00;99.90;;;;;;5001345;28;20048;-79
2023/02/15 08:33:53;;;;;;;89.95;33.40;;;2.00;99.90;;;;;;5004007;28;20048;-79
2023/02/15 08:36:23;;;;;;;101.15;40.63;;;2.10;99.90;;;;;;4983106;28;20056;-79
2023/02/15 08:38:50;;;;;;;103.57;39.30;;;2.30;99.90;;;;;;5010907;28;20057;-79
2023/02/15 08:41:20;;;;;;;101.00;39.50;;;2.40;99.90;;;;;;5003933;28;20052;-79
2023/02/15 08:43:51;;;;;;;95.40;36.55;;;2.50;99.90;;;;;;4981327;28;20061;-79
2023/02/15 08:46:18;;;;;;;83.25;30.88;;;2.60;99.90;;;;;;5004069;28;20050;-79
2023/02/15 08:48:45;;;;;;;88.00;33.92;;;2.70;99.90;;;;;;4994153;28;20053;-79
2023/02/15 08:51:18;;;;;;;82.18;32.83;;;2.70;99.90;;;;;;4992158;28;20046;-79
2023/02/15 08:53:48;;;;;;;;;;;2.80;99.90;;;;;;4988230;28;20515;-78
2023/02/15 08:56:17;;;;;;;65.82;23.88;;;2.90;99.90;;;;;;4990371;28;19929;-78
2023/02/15 08:58:44;;;;;;;77.07;27.75;;;3.00;99.90;;;;;;5026066;28;20428;-79
2023/02/15 09:01:17;;;;;;;71.65;25.23;;;3.10;99.90;;;;;;5012650;28;20045;-78
2023/02/15 09:03:46;;;;;;;64.40;24.77;;;3.20;99.90;;;;;;5014437;28;20049;-78
2023/02/15 09:06:14;;;;;;;73.13;27.38;;;3.30;99.90;;;;;;5006745;28;20727;-78
2023/02/15 09:08:41;;;;;;;65.85;24.73;;;3.50;99.90;;;;;;4974109;28;20048;-78
2023/02/15 09:11:22;;;;;;;61.63;23.40;;;3.50;99.90;;;;;;5003298;28;20175;-77
2023/02/15 09:13:57;;;;;;;60.90;22.30;;;3.60;99.90;;;;;;4991336;28;20171;-78
2023/02/15 09:16:27;;;;;;;56.83;23.30;;;3.60;99.90;;;;;;4994357;28;20053;-78
2023/02/15 09:18:55;;;;;;;61.90;22.33;;;3.70;99.90;;;;;;5010709;28;20058;-78
2023/02/15 09:21:23;;;;;;;53.40;23.80;;;3.80;99.90;;;;;;4958193;28;20049;-78
2023/02/15 09:23:55;;;;;;;54.15;21.92;;;3.90;99.90;;;;;;4992114;28;20913;-78
2023/02/15 09:26:24;;;;;;;65.50;26.40;;;3.90;99.90;;;;;;4991989;28;20049;-78
2023/02/15 09:28:55;;;;;;;66.13;24.25;;;4.00;99.90;;;;;;4993720;28;20530;-79
2023/02/15 09:31:25;;;;;;;49.38;18.20;;;4.20;99.90;;;;;;4990856;28;21050;-78
2023/02/15 09:33:53;;;;;;;52.30;19.95;;;4.30;99.90;;;;;;4992182;28;20049;-78
2023/02/15 09:36:25;;;;;;;47.60;18.20;;;4.30;99.90;;;;;;4976957;28;20602;-79
2023/02/15 09:38:57;;;;;;;55.03;21.60;;;4.50;99.90;;;;;;5010213;28;20061;-79
2023/02/15 09:41:46;;;;;;;48.13;20.77;;;4.50;99.90;;;;;;5008929;28;20633;-78
2023/02/15 09:44:51;;;;;;;60.85;24.08;;;4.50;99.90;;;;;;5017920;28;22368;-78
2023/02/15 09:47:43;;;;;;;68.38;26.08;;;4.60;99.90;;;;;;5016236;28;20499;-78
2023/02/15 09:50:49;;;;;;;59.92;22.30;;;4.60;99.90;;;;;;4994949;28;20096;-78
2023/02/15 09:53:28;;;;;;;58.60;22.20;;;4.70;99.90;;;;;;5033618;28;20056;-78
2023/02/15 09:56:04;;;;;;;50.17;18.90;;;4.80;99.90;;;;;;5010193;28;20067;-79
2023/02/15 09:58:46;;;;;;;52.95;21.23;;;4.80;99.90;;;;;;4995467;28;20649;-79
2023/02/15 10:01:24;;;;;;;45.97;17.53;;;5.00;99.90;;;;;;5013137;28;20057;-77
2023/02/15 10:04:29;;;;;;;41.53;18.35;;;5.00;99.90;;;;;;5012321;28;20823;-76
2023/02/15 10:07:15;;;;;;;60.70;24.17;;;5.00;99.90;;;;;;4998791;28;20542;-78
2023/02/15 10:09:58;;;;;;;79.88;31.55;;;5.00;99.90;;;;;;5039013;28;20472;-78
2023/02/15 10:12:54;;;;;;;56.58;23.27;;;5.10;99.90;;;;;;5007890;28;20045;-79
2023/02/15 10:15:28;;;;;;;55.92;23.10;;;5.10;99.90;;;;;;5024381;28;20049;-79
2023/02/15 10:18:12;;;;;;;55.65;22.25;;;5.20;99.90;;;;;;4997144;28;24033;-79
2023/02/15 10:21:02;;;;;;;57.42;22.98;;;5.30;99.90;;;;;;5011631;28;20182;-79
2023/02/15 10:23:51;;;;;;;44.80;17.23;;;5.40;99.90;;;;;;5013801;28;20120;-79
2023/02/15 10:26:28;;;;;;;46.85;17.45;;;5.40;99.90;;;;;;5013957;28;20053;-78
2023/02/15 10:29:17;;;;;;;45.40;17.52;;;5.50;99.90;;;;;;4997988;28;22390;-79
2023/02/15 10:31:52;;;;;;;37.78;15.70;;;5.50;99.90;;;;;;5024798;28;20045;-78
2023/02/15 10:34:35;;;;;;;49.67;20.15;;;5.60;99.90;;;;;;4997862;28;20144;-78
2023/02/15 10:37:53;;;;;;;48.72;21.10;;;5.60;99.90;;;;;;4996175;28;20057;-79
2023/02/15 10:40:37;;;;;;;40.05;17.85;;;5.70;99.90;;;;;;4974212;28;20058;-79
2023/02/15 10:43:30;;;;;;;48.33;19.95;;;5.80;99.90;;;;;;4991648;28;20065;-80
2023/02/15 10:46:22;;;;;;;48.25;20.92;;;5.90;99.90;;;;;;4997473;28;20462;-78
2023/02/15 10:49:12;;;;;;;43.22;17.70;;;5.90;99.90;;;;;;5013022;28;20076;-80
2023/02/15 10:52:16;;;;;;;48.97;18.63;;;5.90;99.60;;;;;;4993204;28;22361;-80
2023/02/15 10:55:03;;;;;;;48.25;19.33;;;5.90;99.20;;;;;;4995110;28;20045;-79
2023/02/15 10:57:58;;;;;;;48.25;19.35;;;6.00;99.90;;;;;;4997793;28;20044;-77
2023/02/15 11:05:03;;;;;;;50.33;19.75;;;6.10;99.10;;;;;;4996867;28;20043;-79
2023/02/15 11:11:53;;;;;;;50.00;23.30;;;6.30;99.10;;;;;;4992449;28;20519;-79
2023/02/15 11:14:32;;;;;;;50.20;20.42;;;6.30;98.50;;;;;;5010497;28;23040;-79
2023/02/15 11:17:06;;;;;;;54.33;22.45;;;6.40;99.00;;;;;;5014832;28;20056;-80
2023/02/15 11:20:02;;;;;;;54.22;22.75;;;6.40;98.30;;;;;;5000811;28;20792;-80
2023/02/15 11:22:33;;;;;;;55.08;25.02;;;6.30;98.30;;;;;;4975909;28;20929;-80
2023/02/15 11:25:01;;;;;;;51.92;22.52;;;6.40;98.00;;;;;;4998578;28;20184;-78
2023/02/15 11:27:34;;;;;;;55.60;23.35;;;6.40;98.70;;;;;;5006980;28;20055;-80
2023/02/15 11:30:02;;;;;;;;;;;6.50;98.70;;;;;;4991066;28;20057;-79
2023/02/15 11:32:33;;;;;;;53.13;22.17;;;6.60;98.60;;;;;;5011490;28;19935;-80
2023/02/15 11:35:09;;;;;;;50.97;20.90;;;6.60;98.30;;;;;;5015605;28;20053;-80
2023/02/15 11:37:51;;;;;;;46.67;18.90;;;6.70;97.20;;;;;;5001888;28;20063;-79
2023/02/15 11:40:32;;;;;;;44.00;19.13;;;6.70;96.60;;;;;;5014611;28;20199;-79
2023/02/15 11:43:20;;;;;;;51.35;19.92;;;6.80;96.00;;;;;;4986618;28;20203;-79
2023/02/15 11:45:47;;;;;;;44.55;18.95;;;6.80;95.90;;;;;;4994286;28;20056;-79
2023/02/15 11:48:15;;;;;;;43.70;19.38;;;6.80;96.20;;;;;;5014190;28;20041;-79
2023/02/15 11:50:44;;;;;;;43.00;18.20;;;6.90;96.20;;;;;;4987888;28;20045;-80
2023/02/15 11:53:17;;;;;;;43.08;18.35;;;7.00;95.80;;;;;;4996478;28;20188;-79
2023/02/15 11:55:46;;;;;;;38.97;16.23;;;7.00;95.60;;;;;;5022269;28;20081;-80
2023/02/15 11:58:35;;;;;;;39.60;16.83;;;7.00;94.90;;;;;;5007976;28;20037;-80
2023/02/15 12:01:16;;;;;;;39.25;15.43;;;7.10;95.30;;;;;;5015981;28;20098;-80
2023/02/15 12:04:04;;;;;;;42.65;18.35;;;7.10;94.80;;;;;;4997633;28;20049;-79
2023/02/15 12:06:41;;;;;;;29.38;12.82;;;7.10;94.50;;;;;;4996100;28;20052;-80
2023/02/15 12:09:34;;;;;;;30.65;13.00;;;7.30;93.70;;;;;;4995472;28;20671;-80
2023/02/15 12:12:20;;;;;;;32.70;14.27;;;7.10;92.90;;;;;;5006284;28;20041;-80
2023/02/15 12:14:50;;;;;;;35.78;15.18;;;7.20;93.30;;;;;;5000425;28;20064;-80
2023/02/15 12:17:20;;;;;;;36.33;14.10;;;7.20;93.60;;;;;;5016996;28;20110;-78
2023/02/15 12:19:50;;;;;;;37.83;15.45;;;7.20;93.50;;;;;;5012525;28;20057;-80
2023/02/15 12:22:37;;;;;;;39.30;16.00;;;7.30;93.30;;;;;;4998712;28;20053;-80
2023/02/15 12:25:23;;;;;;;39.58;16.50;;;7.20;93.10;;;;;;4997008;28;20125;-80
2023/02/15 12:27:51;;;;;;;40.92;15.88;;;7.40;93.50;;;;;;5010760;28;21126;-80
2023/02/15 12:30:27;;;;;;;36.33;16.20;;;7.40;93.20;;;;;;4982584;28;20053;-80
2023/02/15 12:33:21;;;;;;;38.75;16.40;;;7.30;93.00;;;;;;5028769;28;20550;-80
2023/02/15 12:36:10;;;;;;;38.33;16.55;;;7.20;92.80;;;;;;5021900;28;20056;-80
2023/02/15 12:38:38;;;;;;;36.28;15.50;;;7.30;93.10;;;;;;5002819;28;22318;-80
2023/02/15 12:41:25;;;;;;;36.20;16.23;;;7.30;92.70;;;;;;5038138;28;20045;-80
2023/02/15 12:44:18;;;;;;;41.22;18.35;;;7.40;93.00;;;;;;5002186;28;20057;-80
2023/02/15 12:46:58;;;;;;;;;;;7.30;92.60;;;;;;4977204;28;20172;-79
2023/02/15 12:49:26;;;;;;;43.53;17.80;;;7.30;93.00;;;;;;5000074;28;20502;-79
2023/02/15 12:51:58;;;;;;;42.00;19.08;;;7.40;93.10;;;;;;4996168;28;20045;-80
2023/02/15 12:54:30;;;;;;;52.67;21.83;;;7.40;93.20;;;;;;5020336;28;20054;-80
2023/02/15 12:56:58;;;;;;;43.67;19.67;;;7.50;93.40;;;;;;5026075;28;20116;-80
2023/02/15 12:59:26;;;;;;;42.38;18.95;;;7.50;93.30;;;;;;5000946;28;20053;-80
2023/02/15 13:01:53;;;;;;;44.20;18.92;;;7.40;93.60;;;;;;5001131;28;20060;-80
2023/02/15 13:04:27;;;;;;;43.25;17.77;;;7.50;93.30;;;;;;4975599;28;20060;-80
2023/02/15 13:07:02;;;;;;;41.75;17.65;;;7.50;93.40;;;;;;4998403;28;20188;-80
2023/02/15 13:09:32;;;;;;;44.33;19.15;;;7.40;93.10;;;;;;5009404;28;20325;-80
2023/02/15 13:12:21;;;;;;;39.10;17.50;;;7.60;93.60;;;;;;5010681;28;21021;-79
2023/02/15 13:14:51;;;;;;;37.78;15.90;;;7.50;92.90;;;;;;4997457;28;20057;-79
2023/02/15 13:17:32;;;;;;;36.22;15.07;;;7.50;92.80;;;;;;5000505;28;20724;-78
2023/02/15 13:20:16;;;;;;;39.67;16.85;;;7.40;92.80;;;;;;4983656;28;20053;-80
2023/02/15 13:22:46;;;;;;;37.20;15.30;;;7.40;93.00;;;;;;4985579;28;20045;-80
2023/02/15 13:25:19;;;;;;;39.30;17.08;;;7.40;92.90;;;;;;4982248;28;20050;-80
2023/02/15 13:27:51;;;;;;;38.58;17.20;;;7.40;92.90;;;;;;5004648;28;20068;-78
2023/02/15 13:30:27;;;;;;;44.03;19.00;;;7.50;93.00;;;;;;4998397;28;20072;-80
2023/02/15 13:33:05;;;;;;;39.80;16.75;;;7.50;93.20;;;;;;5011683;28;20644;-79
2023/02/15 13:35:48;;;;;;;38.47;16.77;;;7.50;92.80;;;;;;5002267;28;20412;-80
2023/02/15 13:39:01;;;;;;;38.17;16.65;;;7.50;92.90;;;;;;4999203;28;20045;-80
2023/02/15 13:41:54;;;;;;;39.28;16.98;;;7.50;92.90;;;;;;4964560;28;20099;-80
2023/02/15 13:44:36;;;;;;;38.33;15.73;;;7.60;92.70;;;;;;4963530;28;20045;-80
2023/02/15 13:47:46;;;;;;;37.08;15.13;;;7.50;92.60;;;;;;4965359;28;20046;-80